createdAt,value
2023-02-13T00:02:27.268Z,86.14
2023-02-13T00:07:29.078Z,86.36
2023-02-13T00:12:38.571Z,86.32
2023-02-13T00:17:40.570Z,86.11
2023-02-13T00:22:42.567Z,86.44
2023-02-13T00:27:44.791Z,86.36
2023-02-13T00:32:46.812Z,86.29
2023-02-13T00:37:48.572Z,86.40
2023-02-13T00:42:50.419Z,86.35
2023-02-13T00:47:52.453Z,86.33
2023-02-13T00:52:56.161Z,86.43
2023-02-13T00:57:57.995Z,86.37
2023-02-13T01:03:00.281Z,86.44
2023-02-13T01:08:02.612Z,86.53
2023-02-13T01:13:04.932Z,86.58
2023-02-13T01:18:09.929Z,86.43
2023-02-13T01:23:12.919Z,86.65
2023-02-13T01:28:14.880Z,86.58
2023-02-13T01:33:20.100Z,86.59
2023-02-13T01:38:22.071Z,86.75
2023-02-13T01:43:25.153Z,86.65
2023-02-13T01:48:27.961Z,86.53
2023-02-13T01:54:02.476Z,86.79
2023-02-13T01:59:12.306Z,86.41
2023-02-13T02:04:19.988Z,86.64
2023-02-13T02:09:27.705Z,86.76
2023-02-13T02:14:29.845Z,86.60
2023-02-13T02:19:44.893Z,86.59
2023-02-13T02:25:04.657Z,86.74
2023-02-13T02:30:39.374Z,86.85
2023-02-13T02:35:51.835Z,86.73
2023-02-13T02:41:40.219Z,86.88
2023-02-13T02:47:14.908Z,86.97
2023-02-13T02:52:26.829Z,86.99
2023-02-13T02:57:54.420Z,86.69
2023-02-13T03:03:14.970Z,86.78
2023-02-13T03:08:41.523Z,86.80
2023-02-13T03:13:47.163Z,86.63
2023-02-13T03:19:14.339Z,86.91
2023-02-13T03:24:50.908Z,86.75
2023-02-13T03:30:45.385Z,86.77
2023-02-13T03:36:12.572Z,86.79
2023-02-13T03:41:22.535Z,86.86
2023-02-13T03:46:27.329Z,86.63
2023-02-13T03:51:41.762Z,86.98
2023-02-13T03:57:04.147Z,86.81
2023-02-13T04:02:21.170Z,86.91
2023-02-13T04:07:32.209Z,86.87
2023-02-13T04:13:03.711Z,86.75
2023-02-13T04:18:10.832Z,86.79
2023-02-13T04:23:14.605Z,86.88
2023-02-13T04:28:19.600Z,86.85
2023-02-13T04:33:21.428Z,86.83
2023-02-13T04:38:29.293Z,86.73
2023-02-13T04:43:31.184Z,86.75
2023-02-13T04:48:32.950Z,86.61
2023-02-13T04:53:34.767Z,86.92
2023-02-13T04:58:36.646Z,86.75
2023-02-13T05:03:38.455Z,87.04
2023-02-13T05:08:40.332Z,86.83
2023-02-13T05:13:42.538Z,86.95
2023-02-13T05:18:46.502Z,86.73
2023-02-13T05:23:48.326Z,86.84
2023-02-13T05:29:08.605Z,86.95
2023-02-13T05:34:10.441Z,86.91
2023-02-13T05:39:12.462Z,86.96
2023-02-13T05:44:15.282Z,86.92
2023-02-13T05:49:17.096Z,86.51
2023-02-13T05:54:19.600Z,86.76
2023-02-13T05:59:23.928Z,86.58
2023-02-13T06:04:26.207Z,86.93
2023-02-13T06:09:32.488Z,87.03
2023-02-13T06:14:34.885Z,87.07
2023-02-13T06:19:36.612Z,86.98
2023-02-13T06:24:38.393Z,86.98
2023-02-13T06:29:40.162Z,86.82
2023-02-13T06:34:42.061Z,86.76
2023-02-13T06:39:43.998Z,86.80
2023-02-13T06:44:46.022Z,86.93
2023-02-13T06:49:48.350Z,86.73
2023-02-13T06:54:50.141Z,87.00
2023-02-13T06:59:51.888Z,86.91
2023-02-13T07:04:53.668Z,86.92
2023-02-13T07:09:55.412Z,86.96
2023-02-13T07:14:57.194Z,86.87
2023-02-13T07:19:59.245Z,86.98
2023-02-13T07:25:01.735Z,87.00
2023-02-13T07:30:04.209Z,86.93
2023-02-13T07:35:06.502Z,86.63
2023-02-13T07:40:09.385Z,87.02
2023-02-13T07:45:12.245Z,86.86
2023-02-13T07:50:14.273Z,86.83
2023-02-13T07:55:16.325Z,86.80
2023-02-13T08:00:22.449Z,87.02
2023-02-13T08:05:24.389Z,86.91
2023-02-13T08:10:44.881Z,87.04
2023-02-13T08:15:47.629Z,87.06
2023-02-13T08:20:49.481Z,86.96
2023-02-13T08:26:16.374Z,86.90
2023-02-13T08:31:21.584Z,87.10
2023-02-13T08:36:24.993Z,87.06
2023-02-13T08:41:27.144Z,87.18
2023-02-13T08:46:29.118Z,87.00
2023-02-13T08:51:30.950Z,86.93
2023-02-13T08:56:33.194Z,87.13
2023-02-13T09:01:46.988Z,87.01
2023-02-13T09:06:49.110Z,87.11
2023-02-13T09:11:52.643Z,86.94
2023-02-13T09:16:57.971Z,87.10
2023-02-13T09:22:00.056Z,87.13
2023-02-13T09:27:02.110Z,87.25
2023-02-13T09:32:06.415Z,87.22
2023-02-13T09:37:08.530Z,87.31
2023-02-13T09:42:33.676Z,87.20
2023-02-13T09:47:40.108Z,87.00
2023-02-13T09:52:45.815Z,87.17
2023-02-13T09:58:16.563Z,86.98
2023-02-13T10:03:53.574Z,87.12
2023-02-13T10:09:04.421Z,87.11
2023-02-13T10:14:28.175Z,87.20
2023-02-13T10:19:49.492Z,87.17
2023-02-13T10:25:11.156Z,87.15
2023-02-13T10:30:23.977Z,87.28
2023-02-13T10:35:30.920Z,87.15
2023-02-13T10:40:39.188Z,87.26
2023-02-13T10:45:47.061Z,86.97
2023-02-13T10:51:29.036Z,87.22
2023-02-13T10:56:54.327Z,87.12
2023-02-13T11:02:14.195Z,87.01
2023-02-13T11:07:19.782Z,86.79
2023-02-13T11:12:33.330Z,86.55
2023-02-13T11:17:39.968Z,86.49
2023-02-13T11:22:43.269Z,86.53
2023-02-13T11:27:46.519Z,86.46
2023-02-13T11:33:04.284Z,86.54
2023-02-13T11:38:20.978Z,86.41
2023-02-13T11:43:35.573Z,86.24
2023-02-13T11:48:37.534Z,86.19
2023-02-13T11:53:40.257Z,86.31
2023-02-13T11:58:43.313Z,86.10
2023-02-13T12:04:02.531Z,86.18
2023-02-13T12:09:04.562Z,86.26
2023-02-13T12:14:13.044Z,86.27
2023-02-13T12:19:21.624Z,85.66
2023-02-13T12:24:46.505Z,86.05
2023-02-13T12:29:54.189Z,85.77
2023-02-13T12:35:07.931Z,85.60
2023-02-13T12:40:27.044Z,85.52
2023-02-13T12:45:37.668Z,85.61
2023-02-13T12:51:03.511Z,85.73
2023-02-13T12:56:25.043Z,85.58
2023-02-13T13:01:57.379Z,85.51
2023-02-13T13:07:15.086Z,85.29
2023-02-13T13:12:31.700Z,84.80
2023-02-13T13:17:50.838Z,84.72
2023-02-13T13:22:53.952Z,84.65
2023-02-13T13:28:01.959Z,84.45
2023-02-13T13:33:10.082Z,84.45
2023-02-13T13:38:30.256Z,84.52
2023-02-13T13:43:54.353Z,84.53
2023-02-13T13:49:23.669Z,83.86
2023-02-13T13:54:35.165Z,83.78
2023-02-13T13:59:37.936Z,83.66
2023-02-13T14:04:43.716Z,83.57
2023-02-13T14:09:46.375Z,83.43
2023-02-13T14:14:48.399Z,83.35
2023-02-13T14:19:53.336Z,83.56
2023-02-13T14:24:59.125Z,83.63
2023-02-13T14:30:02.303Z,83.40
2023-02-13T14:35:20.983Z,83.54
2023-02-13T14:40:22.805Z,83.28
2023-02-13T14:45:29.665Z,83.28
2023-02-13T14:50:46.510Z,83.15
2023-02-13T14:55:55.888Z,83.38
2023-02-13T15:01:06.773Z,83.27
2023-02-13T15:06:20.004Z,82.99
2023-02-13T15:11:43.424Z,83.02
2023-02-13T15:16:49.671Z,82.61
2023-02-13T15:22:01.042Z,82.35
2023-02-13T15:27:06.648Z,82.67
2023-02-13T15:32:20.503Z,82.62
2023-02-13T15:37:29.983Z,82.32
2023-02-13T15:42:32.689Z,82.40
2023-02-13T15:47:36.896Z,82.27
2023-02-13T15:52:39.654Z,82.41
2023-02-13T15:57:44.064Z,82.34
2023-02-13T16:02:47.935Z,82.55
2023-02-13T16:07:53.670Z,82.42
2023-02-13T16:12:58.383Z,82.62
2023-02-13T16:18:01.373Z,82.52
2023-02-13T16:23:18.298Z,82.51
2023-02-13T16:28:24.058Z,82.54
2023-02-13T16:33:33.258Z,82.48
2023-02-13T16:38:45.670Z,82.64
2023-02-13T16:43:52.025Z,82.55
2023-02-13T16:48:57.037Z,82.48
2023-02-13T16:54:16.772Z,82.51
2023-02-13T16:59:43.452Z,82.50
2023-02-13T17:05:08.384Z,82.64
2023-02-13T17:10:27.474Z,82.57
2023-02-13T17:15:32.335Z,82.43
2023-02-13T17:20:35.883Z,82.40
2023-02-13T17:25:38.383Z,82.59
2023-02-13T17:30:41.512Z,82.54
2023-02-13T17:35:43.542Z,82.45
2023-02-13T17:40:46.166Z,82.39
2023-02-13T17:45:50.200Z,82.42
2023-02-13T17:50:52.568Z,82.38
2023-02-13T17:55:54.447Z,82.40
2023-02-13T18:00:56.640Z,82.50
2023-02-13T18:05:58.934Z,82.13
2023-02-13T18:11:00.966Z,82.50
2023-02-13T18:16:08.808Z,82.26
2023-02-13T18:21:12.605Z,82.49
2023-02-13T18:26:15.505Z,82.57
2023-02-13T18:31:17.659Z,82.55
2023-02-13T18:36:19.656Z,82.43
2023-02-13T18:41:21.930Z,82.45
2023-02-13T18:46:24.239Z,82.77
2023-02-13T18:51:26.737Z,82.64
2023-02-13T18:56:28.813Z,82.78
2023-02-13T19:01:30.769Z,82.68
2023-02-13T19:06:33.943Z,82.44
2023-02-13T19:11:38.668Z,82.91
2023-02-13T19:16:41.169Z,82.92
2023-02-13T19:21:43.117Z,82.79
2023-02-13T19:26:45.114Z,82.64
2023-02-13T19:31:47.128Z,82.70
2023-02-13T19:36:49.011Z,82.88
2023-02-13T19:41:51.101Z,82.70
2023-02-13T19:46:53.103Z,82.72
2023-02-13T19:51:55.258Z,82.78
2023-02-13T19:57:01.641Z,82.91
2023-02-13T20:02:03.564Z,82.91
2023-02-13T20:07:06.354Z,82.77
2023-02-13T20:12:08.122Z,82.81
2023-02-13T20:17:09.945Z,82.91
2023-02-13T20:22:16.821Z,82.76
2023-02-13T20:27:18.660Z,83.05
2023-02-13T20:32:21.354Z,83.04
2023-02-13T20:37:25.794Z,82.98
2023-02-13T20:42:27.835Z,82.96
2023-02-13T20:47:29.622Z,82.92
2023-02-13T20:52:34.605Z,82.82
2023-02-13T20:57:37.049Z,82.91
2023-02-13T21:02:39.076Z,82.88
2023-02-13T21:07:41.257Z,82.81
2023-02-13T21:12:43.692Z,83.07
2023-02-13T21:17:46.190Z,82.71
2023-02-13T21:22:48.093Z,82.72
2023-02-13T21:27:50.186Z,82.91
2023-02-13T21:32:51.924Z,83.04
2023-02-13T21:37:55.027Z,83.11
2023-02-13T21:42:56.768Z,82.79
2023-02-13T21:47:58.612Z,82.84
2023-02-13T21:53:00.535Z,82.82
2023-02-13T21:58:02.336Z,82.93
2023-02-13T22:03:04.210Z,82.92
2023-02-13T22:08:12.158Z,83.06
2023-02-13T22:13:13.895Z,82.83
2023-02-13T22:18:15.744Z,82.87
2023-02-13T22:23:17.596Z,82.76
2023-02-13T22:28:19.358Z,82.87
2023-02-13T22:33:21.639Z,82.80
2023-02-13T22:38:23.434Z,83.15
2023-02-13T22:43:32.562Z,82.96
2023-02-13T22:48:38.538Z,83.21
2023-02-13T22:53:40.690Z,83.00
2023-02-13T22:58:42.428Z,83.01
2023-02-13T23:03:44.848Z,83.01
2023-02-13T23:08:49.272Z,83.01
2023-02-13T23:13:51.033Z,83.07
2023-02-13T23:18:57.500Z,83.09
2023-02-13T23:23:59.329Z,83.05
2023-02-13T23:29:01.160Z,83.05
2023-02-13T23:34:03.479Z,83.02
2023-02-13T23:39:05.353Z,82.98
2023-02-13T23:44:07.258Z,83.19
2023-02-13T23:49:09.159Z,83.00
2023-02-13T23:54:14.990Z,83.17
2023-02-13T23:59:18.705Z,83.14
